createdAt,value
2022-10-18T00:02:07.900Z,2.70
2022-10-18T00:04:34.898Z,2.78
2022-10-18T00:07:01.657Z,3.05
2022-10-18T00:09:28.455Z,2.70
2022-10-18T00:11:55.663Z,3.05
2022-10-18T00:14:22.561Z,2.80
2022-10-18T00:16:49.377Z,2.90
2022-10-18T00:19:16.732Z,2.65
2022-10-18T00:24:10.561Z,2.92
2022-10-18T00:26:37.351Z,2.90
2022-10-18T00:29:05.267Z,2.28
2022-10-18T00:31:35.877Z,3.30
2022-10-18T00:34:04.637Z,2.78
2022-10-18T00:36:32.658Z,2.55
2022-10-18T00:38:59.632Z,2.90
2022-10-18T00:41:28.278Z,2.20
2022-10-18T00:43:58.111Z,2.55
2022-10-18T00:46:25.775Z,2.50
2022-10-18T00:51:27.851Z,2.85
2022-10-18T00:53:54.660Z,2.67
2022-10-18T00:56:21.463Z,3.05
2022-10-18T00:58:48.539Z,2.50
2022-10-18T01:01:15.411Z,2.72
2022-10-18T01:03:42.511Z,3.00
2022-10-18T01:06:09.503Z,2.50
2022-10-18T01:08:48.365Z,2.70
2022-10-18T01:11:44.629Z,2.75
2022-10-18T01:14:41.551Z,2.45
2022-10-18T01:17:29.667Z,3.40
2022-10-18T01:20:08.749Z,3.13
2022-10-18T01:22:43.155Z,2.85
2022-10-18T01:25:12.759Z,2.60
2022-10-18T01:27:47.290Z,2.65
2022-10-18T01:30:34.013Z,2.92
2022-10-18T01:33:32.699Z,2.45
2022-10-18T01:36:09.862Z,2.50
2022-10-18T01:38:36.876Z,2.40
2022-10-18T01:41:03.874Z,2.60
2022-10-18T01:43:30.673Z,2.10
2022-10-18T01:45:57.465Z,2.40
2022-10-18T01:48:24.763Z,2.40
2022-10-18T01:50:52.317Z,2.20
2022-10-18T01:53:37.510Z,2.40
2022-10-18T01:56:07.077Z,3.10
2022-10-18T01:58:55.657Z,2.50
2022-10-18T02:01:30.852Z,2.47
2022-10-18T02:04:00.514Z,2.40
2022-10-18T02:06:29.683Z,2.10
2022-10-18T02:09:10.338Z,2.40
2022-10-18T02:11:37.310Z,2.35
2022-10-18T02:14:07.557Z,2.00
2022-10-18T02:16:35.974Z,2.28
2022-10-18T02:19:15.001Z,2.20
2022-10-18T02:21:43.325Z,2.13
2022-10-18T02:24:11.299Z,2.10
2022-10-18T02:26:38.119Z,2.30
2022-10-18T02:29:05.011Z,2.20
2022-10-18T02:31:35.324Z,2.08
2022-10-18T02:34:20.103Z,2.60
2022-10-18T02:37:08.339Z,2.30
2022-10-18T02:39:37.234Z,2.40
2022-10-18T02:42:08.141Z,2.08
2022-10-18T02:44:35.144Z,2.30
2022-10-18T02:47:02.288Z,1.98
2022-10-18T02:49:29.102Z,2.58
2022-10-18T02:51:56.022Z,2.17
2022-10-18T02:54:23.397Z,2.00
2022-10-18T02:56:50.405Z,2.10
2022-10-18T02:59:17.329Z,2.00
2022-10-18T03:01:44.180Z,2.10
2022-10-18T03:04:10.979Z,2.03
2022-10-18T03:06:37.869Z,2.42
2022-10-18T03:09:05.283Z,2.05
2022-10-18T03:11:32.313Z,1.77
2022-10-18T03:13:59.052Z,1.90
2022-10-18T03:16:25.817Z,1.98
2022-10-18T03:18:52.638Z,1.70
2022-10-18T03:21:19.442Z,2.10
2022-10-18T03:23:46.198Z,2.35
2022-10-18T03:26:12.968Z,2.05
2022-10-18T03:28:39.785Z,2.10
2022-10-18T03:31:06.588Z,2.00
2022-10-18T03:33:33.662Z,2.03
2022-10-18T03:36:00.494Z,2.45
2022-10-18T03:38:27.337Z,2.05
2022-10-18T03:40:54.110Z,2.20
2022-10-18T03:43:20.929Z,2.08
2022-10-18T03:45:47.718Z,2.53
2022-10-18T03:48:14.538Z,2.20
2022-10-18T03:50:42.098Z,2.05
2022-10-18T03:53:08.870Z,2.38
2022-10-18T03:55:36.818Z,1.85
2022-10-18T03:58:03.864Z,1.95
2022-10-18T04:00:30.651Z,2.20
2022-10-18T04:02:57.451Z,2.20
2022-10-18T04:05:24.328Z,1.90
2022-10-18T04:07:51.142Z,2.45
2022-10-18T04:10:18.707Z,1.90
2022-10-18T04:12:45.458Z,2.00
2022-10-18T04:15:12.370Z,2.35
2022-10-18T04:17:39.154Z,2.40
2022-10-18T04:20:06.579Z,2.25
2022-10-18T04:22:33.330Z,2.15
2022-10-18T04:25:00.176Z,1.90
2022-10-18T04:27:26.966Z,2.15
2022-10-18T04:29:53.803Z,2.25
2022-10-18T04:32:20.542Z,2.20
2022-10-18T04:34:47.301Z,2.20
2022-10-18T04:37:14.109Z,1.90
2022-10-18T04:39:40.866Z,2.10
2022-10-18T04:42:07.605Z,2.33
2022-10-18T04:44:34.449Z,2.15
2022-10-18T04:47:01.202Z,2.03
2022-10-18T04:49:28.012Z,2.35
2022-10-18T04:51:54.814Z,2.00
2022-10-18T04:54:22.899Z,2.17
2022-10-18T04:56:52.003Z,1.83
2022-10-18T04:59:18.846Z,2.35
2022-10-18T05:01:45.736Z,2.10
2022-10-18T05:04:12.703Z,2.40
2022-10-18T05:06:39.616Z,2.20
2022-10-18T05:09:06.454Z,2.25
2022-10-18T05:11:33.338Z,2.08
2022-10-18T05:14:00.146Z,2.30
2022-10-18T05:16:28.485Z,2.30
2022-10-18T05:18:57.179Z,2.53
2022-10-18T05:21:24.030Z,2.10
2022-10-18T05:23:50.938Z,2.20
2022-10-18T05:26:17.823Z,2.75
2022-10-18T05:28:44.744Z,2.67
2022-10-18T05:31:11.958Z,2.58
2022-10-18T05:33:38.911Z,2.42
2022-10-18T05:36:06.030Z,2.50
2022-10-18T05:38:33.007Z,2.40
2022-10-18T05:40:59.950Z,2.53
2022-10-18T05:43:29.761Z,2.80
2022-10-18T05:45:56.606Z,2.40
2022-10-18T05:48:23.500Z,2.30
2022-10-18T05:50:50.346Z,3.28
2022-10-18T05:53:35.704Z,2.95
2022-10-18T05:56:03.562Z,2.35
2022-10-18T05:58:30.397Z,3.20
2022-10-18T06:01:01.062Z,3.00
2022-10-18T06:03:28.422Z,2.40
2022-10-18T06:06:00.450Z,2.40
2022-10-18T06:08:27.565Z,3.25
2022-10-18T06:10:54.608Z,2.70
2022-10-18T06:13:21.490Z,2.58
2022-10-18T06:15:48.333Z,2.45
2022-10-18T06:18:15.234Z,2.45
2022-10-18T06:20:42.077Z,2.20
2022-10-18T06:23:08.952Z,2.63
2022-10-18T06:25:35.831Z,2.38
2022-10-18T06:28:07.762Z,2.42
2022-10-18T06:30:37.136Z,2.42
2022-10-18T06:33:03.977Z,2.55
2022-10-18T06:35:30.823Z,2.88
2022-10-18T06:37:57.796Z,2.80
2022-10-18T06:40:24.879Z,3.00
2022-10-18T06:43:00.169Z,2.58
2022-10-18T06:45:33.460Z,2.70
2022-10-18T06:48:00.335Z,2.70
2022-10-18T06:50:27.187Z,2.60
2022-10-18T06:52:54.000Z,2.60
2022-10-18T06:55:20.884Z,2.45
2022-10-18T06:57:47.744Z,2.60
2022-10-18T07:00:15.239Z,2.85
2022-10-18T07:02:42.085Z,2.80
2022-10-18T07:05:09.755Z,2.58
2022-10-18T07:07:36.671Z,2.80
2022-10-18T07:10:04.010Z,2.45
2022-10-18T07:12:31.567Z,2.95
2022-10-18T07:14:58.430Z,3.25
2022-10-18T07:17:26.034Z,3.20
2022-10-18T07:19:52.874Z,3.00
2022-10-18T07:22:19.729Z,3.15
2022-10-18T07:24:46.508Z,3.55
2022-10-18T07:27:13.327Z,2.95
2022-10-18T07:29:40.944Z,2.58
2022-10-18T07:32:07.805Z,2.90
2022-10-18T07:34:34.731Z,2.65
2022-10-18T07:37:02.200Z,2.53
2022-10-18T07:39:29.035Z,2.58
2022-10-18T07:41:56.140Z,2.60
2022-10-18T07:44:23.115Z,3.38
2022-10-18T07:46:49.978Z,2.50
2022-10-18T07:49:17.198Z,3.00
2022-10-18T07:51:44.019Z,2.50
2022-10-18T07:54:10.892Z,2.67
2022-10-18T07:56:37.716Z,2.60
2022-10-18T07:59:04.582Z,3.10
2022-10-18T08:01:31.548Z,3.13
2022-10-18T08:04:06.131Z,3.05
2022-10-18T08:06:34.391Z,3.55
2022-10-18T08:09:01.278Z,3.00
2022-10-18T08:11:28.238Z,3.45
2022-10-18T08:13:55.204Z,3.42
2022-10-18T08:16:27.066Z,3.00
2022-10-18T08:18:54.245Z,3.53
2022-10-18T08:21:21.210Z,3.33
2022-10-18T08:23:48.402Z,3.10
2022-10-18T08:26:16.891Z,4.40
2022-10-18T08:28:53.620Z,3.60
2022-10-18T08:31:21.098Z,3.53
2022-10-18T08:33:47.982Z,3.63
2022-10-18T08:36:16.065Z,4.70
2022-10-18T08:38:43.094Z,4.28
2022-10-18T08:41:18.478Z,4.07
2022-10-18T08:43:56.325Z,4.53
2022-10-18T08:46:23.151Z,4.88
2022-10-18T08:48:50.869Z,4.50
2022-10-18T08:51:30.521Z,4.53
2022-10-18T08:54:07.489Z,4.82
2022-10-18T08:56:34.397Z,4.72
2022-10-18T08:59:03.317Z,5.32
2022-10-18T09:04:48.674Z,6.00
2022-10-18T09:07:51.730Z,5.45
2022-10-18T09:10:36.927Z,5.53
2022-10-18T09:13:06.685Z,5.55
2022-10-18T09:15:49.674Z,5.53
2022-10-18T09:18:50.530Z,7.05
2022-10-18T09:21:22.874Z,7.90
2022-10-18T09:24:14.826Z,6.53
2022-10-18T09:26:46.266Z,5.07
2022-10-18T09:31:59.785Z,3.90
2022-10-18T09:34:37.090Z,3.80
2022-10-18T09:37:04.142Z,5.00
2022-10-18T09:39:32.841Z,4.70
2022-10-18T09:42:14.873Z,5.10
2022-10-18T09:44:49.134Z,5.30
2022-10-18T09:47:24.859Z,5.30
2022-10-18T09:50:00.750Z,6.47
2022-10-18T09:52:40.031Z,5.78
2022-10-18T09:55:15.693Z,5.53
2022-10-18T09:57:45.077Z,5.97
2022-10-18T10:00:33.454Z,4.97
2022-10-18T10:03:01.454Z,5.68
2022-10-18T10:05:28.272Z,4.72
2022-10-18T10:07:59.868Z,4.72
2022-10-18T10:10:27.922Z,4.80
2022-10-18T10:13:17.416Z,4.80
2022-10-18T10:15:56.765Z,4.32
2022-10-18T10:18:30.507Z,3.63
2022-10-18T10:21:01.329Z,3.97
2022-10-18T10:23:30.934Z,3.55
2022-10-18T10:26:02.967Z,3.67
2022-10-18T10:28:41.040Z,3.78
2022-10-18T10:31:28.820Z,3.58
2022-10-18T10:34:05.983Z,3.42
2022-10-18T10:36:33.474Z,3.92
2022-10-18T10:39:20.045Z,3.80
2022-10-18T10:41:48.313Z,3.47
2022-10-18T10:44:16.977Z,3.50
2022-10-18T10:46:44.577Z,3.22
2022-10-18T10:49:40.387Z,3.80
2022-10-18T10:52:09.251Z,3.60
2022-10-18T10:54:52.076Z,3.80
2022-10-18T10:57:23.672Z,4.00
2022-10-18T10:59:52.414Z,3.58
2022-10-18T11:02:23.434Z,3.60
2022-10-18T11:04:54.951Z,4.25
2022-10-18T11:07:40.810Z,3.05
2022-10-18T11:10:10.671Z,3.03
2022-10-18T11:12:47.480Z,3.08
2022-10-18T11:15:28.684Z,2.70
2022-10-18T11:18:34.055Z,2.75
2022-10-18T11:21:08.166Z,2.50
2022-10-18T11:23:36.797Z,2.28
2022-10-18T11:26:07.899Z,2.63
2022-10-18T11:28:56.745Z,2.20
2022-10-18T11:31:42.967Z,2.22
2022-10-18T11:34:45.021Z,2.22
2022-10-18T11:37:30.068Z,2.20
2022-10-18T11:40:15.912Z,2.50
2022-10-18T11:43:07.007Z,1.85
2022-10-18T11:45:46.193Z,2.20
2022-10-18T11:48:53.416Z,2.28
2022-10-18T11:51:34.321Z,2.30
2022-10-18T11:54:17.621Z,2.20
2022-10-18T11:56:52.788Z,1.90
2022-10-18T11:59:28.595Z,2.30
2022-10-18T12:02:03.428Z,2.20
2022-10-18T12:05:05.940Z,2.28
2022-10-18T12:08:08.112Z,2.47
2022-10-18T12:10:45.743Z,2.10
2022-10-18T12:13:35.257Z,2.30
2022-10-18T12:16:05.705Z,2.70
2022-10-18T12:18:32.561Z,2.17
2022-10-18T12:20:59.518Z,2.25
2022-10-18T12:23:29.340Z,2.20
2022-10-18T12:26:00.914Z,2.67
2022-10-18T12:28:46.096Z,2.78
2022-10-18T12:31:24.819Z,2.50
2022-10-18T12:33:54.353Z,2.47
2022-10-18T12:36:21.150Z,2.63
2022-10-18T12:39:01.585Z,2.38
2022-10-18T12:41:32.751Z,2.00
2022-10-18T12:44:19.091Z,2.08
2022-10-18T12:46:50.171Z,1.92
2022-10-18T12:49:32.105Z,2.83
2022-10-18T12:52:20.247Z,1.73
2022-10-18T12:55:04.517Z,2.47
2022-10-18T12:57:52.520Z,1.70
2022-10-18T13:00:31.373Z,1.90
2022-10-18T13:03:24.584Z,2.10
2022-10-18T13:05:58.399Z,2.05
2022-10-18T13:08:34.571Z,1.63
2022-10-18T13:11:10.426Z,2.00
2022-10-18T13:13:59.056Z,2.13
2022-10-18T13:16:31.479Z,1.90
2022-10-18T13:19:35.804Z,1.98
2022-10-18T13:22:40.202Z,2.08
2022-10-18T13:25:26.062Z,2.40
2022-10-18T13:28:12.854Z,2.00
2022-10-18T13:31:13.344Z,2.00
2022-10-18T13:33:40.869Z,2.30
2022-10-18T13:36:22.478Z,2.40
2022-10-18T13:39:04.964Z,2.17
2022-10-18T13:41:41.738Z,2.40
2022-10-18T13:44:40.071Z,2.30
2022-10-18T13:47:07.103Z,2.38
2022-10-18T13:49:40.250Z,2.60
2022-10-18T13:52:46.226Z,3.03
2022-10-18T13:55:40.270Z,2.10
2022-10-18T13:58:13.277Z,2.10
2022-10-18T14:00:49.040Z,2.60
2022-10-18T14:03:55.098Z,2.42
2022-10-18T14:06:24.030Z,2.40
2022-10-18T14:09:25.571Z,2.13
2022-10-18T14:12:14.778Z,2.00
2022-10-18T14:14:47.926Z,2.30
2022-10-18T14:17:46.455Z,2.63
2022-10-18T14:20:13.594Z,2.58
2022-10-18T14:22:48.399Z,1.85
2022-10-18T14:25:48.187Z,2.15
2022-10-18T14:28:31.357Z,2.20
2022-10-18T14:31:03.321Z,2.08
2022-10-18T14:33:36.843Z,2.40
2022-10-18T14:36:30.408Z,2.05
2022-10-18T14:39:01.520Z,2.58
2022-10-18T14:41:35.696Z,1.90
2022-10-18T14:44:16.686Z,2.08
2022-10-18T14:47:04.460Z,2.42
2022-10-18T14:49:31.371Z,2.10
2022-10-18T14:51:59.244Z,1.98
2022-10-18T14:54:32.334Z,2.13
2022-10-18T14:57:00.468Z,2.30
2022-10-18T14:59:28.329Z,2.10
2022-10-18T15:02:02.594Z,2.00
2022-10-18T15:04:33.057Z,2.20
2022-10-18T15:07:01.512Z,1.67
2022-10-18T15:12:01.016Z,2.42
2022-10-18T15:14:28.612Z,2.08
2022-10-18T15:16:59.622Z,1.90
2022-10-18T15:19:34.652Z,2.03
2022-10-18T15:25:12.326Z,2.25
2022-10-18T15:27:43.626Z,2.20
2022-10-18T15:30:19.646Z,2.05
2022-10-18T15:32:54.389Z,2.00
2022-10-18T15:35:26.777Z,2.17
2022-10-18T15:37:54.530Z,2.40
2022-10-18T15:40:24.423Z,2.40
2022-10-18T15:42:52.623Z,2.20
2022-10-18T15:45:25.298Z,2.15
2022-10-18T15:48:10.225Z,2.10
2022-10-18T15:50:41.121Z,2.05
2022-10-18T15:53:24.385Z,1.83
2022-10-18T15:56:13.081Z,2.00
2022-10-18T15:58:40.986Z,1.92
2022-10-18T16:01:17.630Z,2.53
2022-10-18T16:03:45.382Z,2.22
2022-10-18T16:06:14.661Z,1.70
2022-10-18T16:08:49.524Z,1.90
2022-10-18T16:11:25.811Z,1.90
2022-10-18T16:13:55.186Z,2.00
2022-10-18T16:16:26.416Z,2.13
2022-10-18T16:18:53.359Z,1.83
2022-10-18T16:21:31.296Z,1.80
2022-10-18T16:23:58.270Z,2.25
2022-10-18T16:26:25.557Z,2.03
2022-10-18T16:28:53.037Z,1.90
2022-10-18T16:31:22.170Z,2.10
2022-10-18T16:33:49.404Z,1.67
2022-10-18T16:36:21.504Z,2.10
2022-10-18T16:38:48.633Z,2.25
2022-10-18T16:41:15.946Z,2.10
2022-10-18T16:43:46.577Z,1.90
2022-10-18T16:46:18.179Z,2.17
2022-10-18T16:48:45.398Z,1.92
2022-10-18T16:51:12.309Z,1.77
2022-10-18T16:53:39.352Z,2.55
2022-10-18T16:56:07.044Z,2.40
2022-10-18T16:58:33.962Z,2.42
2022-10-18T17:01:02.894Z,2.35
2022-10-18T17:03:32.178Z,2.20
2022-10-18T17:05:59.005Z,2.53
2022-10-18T17:08:26.962Z,2.50
2022-10-18T17:10:55.320Z,2.47
2022-10-18T17:13:22.709Z,2.08
2022-10-18T17:15:49.981Z,2.15
2022-10-18T17:18:21.899Z,2.08
2022-10-18T17:20:49.015Z,2.38
2022-10-18T17:23:15.836Z,2.63
2022-10-18T17:25:57.809Z,2.10
2022-10-18T17:28:33.280Z,2.65
2022-10-18T17:31:00.179Z,2.47
2022-10-18T17:33:27.025Z,2.88
2022-10-18T17:35:53.884Z,3.10
2022-10-18T17:38:20.765Z,2.83
2022-10-18T17:40:47.623Z,2.78
2022-10-18T17:43:14.610Z,3.38
2022-10-18T17:45:48.678Z,2.78
2022-10-18T17:48:17.279Z,2.67
2022-10-18T17:50:44.054Z,3.10
2022-10-18T17:53:12.027Z,2.83
2022-10-18T17:55:39.335Z,2.33
2022-10-18T17:58:06.230Z,2.92
2022-10-18T18:00:33.117Z,2.63
2022-10-18T18:03:00.261Z,2.75
2022-10-18T18:05:30.798Z,2.60
2022-10-18T18:08:02.729Z,3.00
2022-10-18T18:10:35.418Z,2.67
2022-10-18T18:13:02.508Z,3.20
2022-10-18T18:15:29.387Z,3.60
2022-10-18T18:17:57.645Z,3.30
2022-10-18T18:20:25.633Z,3.50
2022-10-18T18:22:52.499Z,3.05
2022-10-18T18:25:19.351Z,3.15
2022-10-18T18:27:46.208Z,2.78
2022-10-18T18:30:13.051Z,2.53
2022-10-18T18:32:39.988Z,2.72
2022-10-18T18:35:07.163Z,2.75
2022-10-18T18:37:34.059Z,2.90
2022-10-18T18:40:00.941Z,2.97
2022-10-18T18:42:27.786Z,3.10
2022-10-18T18:44:54.589Z,2.88
2022-10-18T18:47:23.541Z,2.55
2022-10-18T18:49:51.649Z,2.60
2022-10-18T18:52:18.587Z,2.80
2022-10-18T18:54:45.478Z,2.88
2022-10-18T18:57:12.375Z,3.13
2022-10-18T18:59:39.290Z,3.30
2022-10-18T19:02:06.191Z,3.67
2022-10-18T19:04:34.971Z,3.20
2022-10-18T19:07:01.818Z,3.83
2022-10-18T19:09:28.718Z,3.20
2022-10-18T19:11:56.035Z,3.67
2022-10-18T19:14:24.770Z,3.53
2022-10-18T19:16:53.476Z,3.22
2022-10-18T19:19:21.951Z,3.60
2022-10-18T19:21:51.424Z,4.25
2022-10-18T19:24:18.954Z,3.60
2022-10-18T19:26:47.677Z,4.20
2022-10-18T19:29:25.273Z,3.25
2022-10-18T19:31:53.057Z,3.30
2022-10-18T19:34:20.240Z,3.22
2022-10-18T19:36:47.507Z,3.40
2022-10-18T19:39:43.043Z,3.50
2022-10-18T19:42:16.061Z,3.17
2022-10-18T19:44:46.245Z,3.42
2022-10-18T19:47:14.134Z,3.10
2022-10-18T19:49:42.874Z,3.40
2022-10-18T19:52:11.994Z,2.83
2022-10-18T19:54:39.186Z,2.67
2022-10-18T19:57:06.921Z,3.03
2022-10-18T19:59:35.997Z,2.67
2022-10-18T20:02:04.708Z,2.72
2022-10-18T20:04:34.522Z,2.63
2022-10-18T20:07:02.743Z,2.53
2022-10-18T20:09:29.800Z,2.40
2022-10-18T20:11:56.668Z,3.05
2022-10-18T20:14:23.559Z,2.63
2022-10-18T20:16:50.424Z,2.92
2022-10-18T20:19:17.306Z,3.15
2022-10-18T20:21:44.178Z,3.08
2022-10-18T20:24:11.369Z,3.30
2022-10-18T20:26:39.516Z,2.85
2022-10-18T20:29:07.673Z,2.70
2022-10-18T20:31:38.533Z,2.60
2022-10-18T20:34:10.914Z,2.67
2022-10-18T20:36:38.166Z,2.75
2022-10-18T20:39:05.476Z,2.60
2022-10-18T20:41:34.250Z,3.22
2022-10-18T20:44:05.571Z,2.80
2022-10-18T20:46:34.828Z,2.70
2022-10-18T20:49:01.732Z,2.70
2022-10-18T20:51:28.720Z,2.60
2022-10-18T20:53:55.608Z,2.67
2022-10-18T20:56:23.937Z,2.60
2022-10-18T20:58:51.573Z,2.83
2022-10-18T21:01:21.947Z,3.10
2022-10-18T21:03:49.673Z,2.88
2022-10-18T21:06:18.243Z,3.15
2022-10-18T21:08:45.375Z,2.50
2022-10-18T21:11:12.522Z,2.20
2022-10-18T21:13:40.908Z,2.53
2022-10-18T21:16:08.318Z,2.42
2022-10-18T21:18:35.829Z,2.58
2022-10-18T21:21:09.742Z,2.50
2022-10-18T21:23:36.816Z,2.40
2022-10-18T21:26:03.967Z,2.60
2022-10-18T21:28:30.826Z,2.30
2022-10-18T21:31:08.996Z,2.47
2022-10-18T21:33:35.837Z,2.70
2022-10-18T21:36:02.710Z,2.25
2022-10-18T21:38:29.664Z,2.88
2022-10-18T21:40:56.558Z,2.92
2022-10-18T21:43:23.522Z,2.60
2022-10-18T21:45:56.147Z,2.80
2022-10-18T21:50:54.864Z,3.53
2022-10-18T21:53:21.846Z,2.83
2022-10-18T21:55:49.103Z,2.83
2022-10-18T21:58:15.976Z,3.65
2022-10-18T22:00:42.947Z,2.97
2022-10-18T22:03:10.414Z,4.05
2022-10-18T22:05:37.328Z,3.15
2022-10-18T22:08:04.649Z,2.80
2022-10-18T22:10:31.535Z,3.50
2022-10-18T22:12:58.402Z,3.30
2022-10-18T22:15:25.325Z,3.28
2022-10-18T22:17:52.183Z,2.88
2022-10-18T22:20:19.032Z,2.90
2022-10-18T22:22:45.926Z,2.70
2022-10-18T22:25:12.847Z,2.60
2022-10-18T22:27:39.653Z,2.42
2022-10-18T22:30:06.836Z,3.10
2022-10-18T22:32:33.725Z,2.60
2022-10-18T22:35:00.569Z,2.47
2022-10-18T22:37:27.385Z,2.22
2022-10-18T22:39:54.259Z,1.95
2022-10-18T22:42:21.167Z,2.30
2022-10-18T22:44:48.111Z,2.58
2022-10-18T22:47:14.940Z,2.35
2022-10-18T22:49:41.799Z,2.78
2022-10-18T22:52:08.576Z,2.50
2022-10-18T22:54:35.349Z,1.90
2022-10-18T22:57:02.096Z,2.20
2022-10-18T22:59:28.908Z,2.80
2022-10-18T23:01:55.666Z,2.20
2022-10-18T23:04:22.450Z,2.35
2022-10-18T23:06:51.598Z,2.35
2022-10-18T23:09:18.426Z,2.00
2022-10-18T23:11:47.041Z,2.47
2022-10-18T23:14:13.834Z,2.13
2022-10-18T23:16:40.964Z,2.40
2022-10-18T23:19:07.860Z,2.13
2022-10-18T23:21:34.720Z,2.25
2022-10-18T23:24:01.496Z,2.00
2022-10-18T23:26:28.576Z,2.05
2022-10-18T23:28:55.676Z,2.17
2022-10-18T23:31:25.170Z,1.92
2022-10-18T23:33:53.747Z,1.92
2022-10-18T23:36:20.926Z,2.38
2022-10-18T23:38:47.735Z,2.10
2022-10-18T23:41:14.700Z,2.47
2022-10-18T23:43:41.600Z,2.30
2022-10-18T23:46:08.459Z,2.10
2022-10-18T23:48:35.334Z,2.30
2022-10-18T23:51:02.448Z,2.15
2022-10-18T23:53:29.486Z,2.40
2022-10-18T23:56:02.330Z,2.38
2022-10-18T23:58:29.907Z,2.83
